Terminal Aerodrome Forecast
Issued by NWS Memphis, TN

Home | Current Version | Previous Version | Text Only | Print | Product List | Glossary On
Versions: 1 2 3 4 5 6 7 8 9 10 11 12 13 14 15 16 17 18 19
000
FTUS44 KMEG 290530
TAFMKL
TAF
KMKL 290530Z 2906/3006 00000KT P6SM SKC
      TEMPO 2909/2912 3SM BR
     FM291500 30006KT P6SM SCT045
     FM291800 33006KT P6SM VCTS BKN045CB
     FM300200 35002KT P6SM SCT045=

USA.gov is the U.S. government's official web portal to all federal, state and local government web resources and services.